createdAt,value
2019-02-21T00:00:21.000Z,28.1
2019-02-21T00:01:36.000Z,27.9
2019-02-21T00:02:36.000Z,27.9
2019-02-21T00:04:36.000Z,27.9
2019-02-21T00:06:36.000Z,27.9
2019-02-21T00:08:36.000Z,27.8
2019-02-21T00:09:36.000Z,27.8
2019-02-21T00:10:36.000Z,27.9
2019-02-21T00:12:36.000Z,28
2019-02-21T00:14:36.000Z,27.9
2019-02-21T00:16:36.000Z,27.9
2019-02-21T00:17:36.000Z,27.9
2019-02-21T00:19:20.000Z,28
2019-02-21T00:20:36.000Z,28
2019-02-21T00:21:36.000Z,28
2019-02-21T00:23:20.000Z,28
2019-02-21T00:24:36.000Z,28
2019-02-21T00:26:36.000Z,28
2019-02-21T00:28:36.000Z,27.8
2019-02-21T00:30:36.000Z,27.8
2019-02-21T00:32:36.000Z,27.8
2019-02-21T00:33:36.000Z,27.8
2019-02-21T00:34:36.000Z,27.9
2019-02-21T00:36:36.000Z,27.9
2019-02-21T00:38:36.000Z,27.9
2019-02-21T00:40:36.000Z,27.9
2019-02-21T00:41:36.000Z,27.8
2019-02-21T00:43:36.000Z,27.8
2019-02-21T00:45:36.000Z,27.8
2019-02-21T00:46:36.000Z,27.8
2019-02-21T00:48:36.000Z,27.8
2019-02-21T00:49:36.000Z,27.8
2019-02-21T00:51:36.000Z,27.9
2019-02-21T00:52:36.000Z,27.9
2019-02-21T00:54:35.000Z,28
2019-02-21T00:55:35.000Z,28
2019-02-21T00:57:35.000Z,28
2019-02-21T00:58:35.000Z,27.9
2019-02-21T00:59:35.000Z,28
2019-02-21T01:01:20.000Z,28.1
2019-02-21T01:02:35.000Z,28
2019-02-21T01:03:35.000Z,28
2019-02-21T01:04:35.000Z,28.1
2019-02-21T01:06:35.000Z,28.1
2019-02-21T01:08:35.000Z,28
2019-02-21T01:09:35.000Z,28
2019-02-21T01:10:35.000Z,28
2019-02-21T01:12:35.000Z,28
2019-02-21T01:13:35.000Z,28
2019-02-21T01:15:35.000Z,28
2019-02-21T01:16:35.000Z,28
2019-02-21T01:18:35.000Z,28
2019-02-21T01:19:35.000Z,28
2019-02-21T01:21:35.000Z,28.1
2019-02-21T01:23:35.000Z,28
2019-02-21T01:24:35.000Z,28
2019-02-21T01:26:35.000Z,28
2019-02-21T01:28:35.000Z,27.9
2019-02-21T01:30:35.000Z,27.9
2019-02-21T01:32:35.000Z,27.8
2019-02-21T01:33:35.000Z,27.8
2019-02-21T01:35:20.000Z,27.9
2019-02-21T01:36:35.000Z,27.8
2019-02-21T01:37:35.000Z,27.9
2019-02-21T01:39:35.000Z,27.9
2019-02-21T01:41:35.000Z,27.9
2019-02-21T01:43:35.000Z,27.9
2019-02-21T01:45:35.000Z,27.8
2019-02-21T01:46:35.000Z,27.8
2019-02-21T01:48:20.000Z,27.8
2019-02-21T01:49:35.000Z,27.8
2019-02-21T01:51:35.000Z,27.8
2019-02-21T01:53:35.000Z,27.8
2019-02-21T01:54:35.000Z,27.8
2019-02-21T01:56:35.000Z,27.9
2019-02-21T01:58:36.000Z,27.9
2019-02-21T02:00:36.000Z,27.9
2019-02-21T02:02:36.000Z,27.8
2019-02-21T02:03:36.000Z,27.8
2019-02-21T02:04:36.000Z,27.9
2019-02-21T02:05:36.000Z,28
2019-02-21T02:07:36.000Z,28
2019-02-21T02:08:36.000Z,28
2019-02-21T02:10:36.000Z,28
2019-02-21T02:11:36.000Z,28
2019-02-21T02:13:21.000Z,28.1
2019-02-21T02:14:36.000Z,27.9
2019-02-21T02:15:36.000Z,27.9
2019-02-21T02:17:36.000Z,27.9
2019-02-21T02:19:36.000Z,27.8
2019-02-21T02:21:36.000Z,27.7
2019-02-21T02:23:36.000Z,27.7
2019-02-21T02:24:36.000Z,27.7
2019-02-21T02:26:36.000Z,27.8
2019-02-21T02:27:36.000Z,27.8
2019-02-21T02:29:36.000Z,27.8
2019-02-21T02:31:21.000Z,27.8
2019-02-21T02:32:36.000Z,27.6
2019-02-21T02:34:36.000Z,27.5
2019-02-21T02:35:36.000Z,27.5
2019-02-21T02:37:36.000Z,27.5
2019-02-21T02:39:36.000Z,27.6
2019-02-21T02:40:36.000Z,27.6
2019-02-21T02:41:36.000Z,27.6
2019-02-21T02:43:20.000Z,27.7
2019-02-21T02:44:36.000Z,27.7
2019-02-21T02:45:36.000Z,27.7
2019-02-21T02:47:36.000Z,27.8
2019-02-21T02:48:36.000Z,27.8
2019-02-21T02:49:36.000Z,27.8
2019-02-21T02:50:36.000Z,27.9
2019-02-21T02:52:36.000Z,27.9
2019-02-21T02:54:36.000Z,27.9
2019-02-21T02:56:36.000Z,27.8
2019-02-21T02:58:36.000Z,27.7
2019-02-21T02:59:36.000Z,27.6
2019-02-21T03:01:36.000Z,27.5
2019-02-21T03:02:36.000Z,27.5
2019-02-21T03:03:36.000Z,27.6
2019-02-21T03:04:36.000Z,27.7
2019-02-21T03:06:36.000Z,27.7
2019-02-21T03:07:36.000Z,27.7
2019-02-21T03:09:36.000Z,27.7
2019-02-21T03:10:36.000Z,27.8
2019-02-21T03:12:36.000Z,27.8
2019-02-21T03:13:36.000Z,27.8
2019-02-21T03:15:36.000Z,27.9
2019-02-21T03:16:36.000Z,27.9
2019-02-21T03:18:36.000Z,27.8
2019-02-21T03:20:36.000Z,27.7
2019-02-21T03:21:36.000Z,27.7
2019-02-21T03:23:35.000Z,27.6
2019-02-21T03:24:36.000Z,27.6
2019-02-21T03:25:36.000Z,27.7
2019-02-21T03:27:36.000Z,27.7
2019-02-21T03:29:36.000Z,27.7
2019-02-21T03:30:36.000Z,27.7
2019-02-21T03:32:35.000Z,27.7
2019-02-21T03:34:35.000Z,27.6
2019-02-21T03:35:36.000Z,27.6
2019-02-21T03:37:35.000Z,27.6
2019-02-21T03:39:36.000Z,27.5
2019-02-21T03:41:36.000Z,27.5
2019-02-21T03:42:36.000Z,27.5
2019-02-21T03:44:36.000Z,27.5
2019-02-21T03:46:36.000Z,27.5
2019-02-21T03:48:36.000Z,27.5
2019-02-21T03:49:36.000Z,27.5
2019-02-21T03:50:36.000Z,27.6
2019-02-21T03:52:36.000Z,27.7
2019-02-21T03:54:36.000Z,27.6
2019-02-21T03:56:36.000Z,27.5
2019-02-21T03:58:36.000Z,27.5
2019-02-21T04:00:36.000Z,27.5
2019-02-21T04:01:36.000Z,27.5
2019-02-21T04:02:36.000Z,27.5
2019-02-21T04:04:36.000Z,27.6
2019-02-21T04:06:36.000Z,27.5
2019-02-21T04:08:36.000Z,27.4
2019-02-21T04:09:36.000Z,27.4
2019-02-21T04:10:36.000Z,27.5
2019-02-21T04:12:36.000Z,27.6
2019-02-21T04:14:21.000Z,27.6
2019-02-21T04:15:36.000Z,27.5
2019-02-21T04:17:36.000Z,27.4
2019-02-21T04:18:36.000Z,27.4
2019-02-21T04:20:36.000Z,27.5
2019-02-21T04:22:36.000Z,27.4
2019-02-21T04:23:36.000Z,27.5
2019-02-21T04:25:36.000Z,27.5
2019-02-21T04:27:36.000Z,27.5
2019-02-21T04:29:36.000Z,27.5
2019-02-21T04:30:36.000Z,27.5
2019-02-21T04:32:36.000Z,27.5
2019-02-21T04:33:36.000Z,27.5
2019-02-21T04:35:36.000Z,27.5
2019-02-21T04:37:36.000Z,27.5
2019-02-21T04:38:36.000Z,27.5
2019-02-21T04:39:36.000Z,27.5
2019-02-21T04:41:36.000Z,27.5
2019-02-21T04:42:36.000Z,27.5
2019-02-21T04:44:36.000Z,27.6
2019-02-21T04:46:36.000Z,27.5
2019-02-21T04:48:36.000Z,27.5
2019-02-21T04:50:20.000Z,27.4
2019-02-21T04:51:36.000Z,27.4
2019-02-21T04:52:36.000Z,27.4
2019-02-21T04:54:36.000Z,27.4
2019-02-21T04:55:36.000Z,27.4
2019-02-21T04:57:36.000Z,27.5
2019-02-21T04:58:36.000Z,27.5
2019-02-21T05:00:36.000Z,27.5
2019-02-21T05:01:36.000Z,27.4
2019-02-21T05:03:36.000Z,27.4
2019-02-21T05:04:36.000Z,27.4
2019-02-21T05:06:36.000Z,27.4
2019-02-21T05:08:36.000Z,27.4
2019-02-21T05:09:35.000Z,27.4
2019-02-21T05:11:35.000Z,27.4
2019-02-21T05:13:35.000Z,27.4
2019-02-21T05:14:35.000Z,27.4
2019-02-21T05:16:20.000Z,27.5
2019-02-21T05:17:35.000Z,27.5
2019-02-21T05:18:35.000Z,27.5
2019-02-21T05:20:35.000Z,27.5
2019-02-21T05:22:35.000Z,27.5
2019-02-21T05:23:35.000Z,27.5
2019-02-21T05:25:35.000Z,27.4
2019-02-21T05:26:35.000Z,27.4
2019-02-21T05:27:35.000Z,27.5
2019-02-21T05:29:35.000Z,27.5
2019-02-21T05:31:35.000Z,27.4
2019-02-21T05:32:35.000Z,27.4
2019-02-21T05:34:35.000Z,27.3
2019-02-21T05:35:35.000Z,27.3
2019-02-21T05:37:35.000Z,27.3
2019-02-21T05:38:35.000Z,27.3
2019-02-21T05:40:35.000Z,27.4
2019-02-21T05:42:35.000Z,27.4
2019-02-21T05:43:35.000Z,27.3
2019-02-21T05:45:35.000Z,27.3
2019-02-21T05:46:35.000Z,27.3
2019-02-21T05:48:35.000Z,27.3
2019-02-21T05:50:35.000Z,27.2
2019-02-21T05:52:35.000Z,27.1
2019-02-21T05:54:35.000Z,27.1
2019-02-21T05:56:20.000Z,27.2
2019-02-21T05:57:35.000Z,27.2
2019-02-21T05:59:35.000Z,27.2
2019-02-21T06:00:35.000Z,27.2
2019-02-21T06:02:35.000Z,27.2
2019-02-21T06:04:35.000Z,27.2
2019-02-21T06:05:35.000Z,27.1
2019-02-21T06:06:35.000Z,27.1
2019-02-21T06:07:35.000Z,27.2
2019-02-21T06:08:35.000Z,27.3
2019-02-21T06:10:35.000Z,27.4
2019-02-21T06:12:20.000Z,27.4
2019-02-21T06:13:35.000Z,27.3
2019-02-21T06:14:35.000Z,27.3
2019-02-21T06:16:35.000Z,27.3
2019-02-21T06:18:20.000Z,27.4
2019-02-21T06:19:35.000Z,27.4
2019-02-21T06:21:35.000Z,27.3
2019-02-21T06:23:35.000Z,27.3
2019-02-21T06:25:35.000Z,27.4
2019-02-21T06:27:35.000Z,27.3
2019-02-21T06:29:20.000Z,27.2
2019-02-21T06:30:35.000Z,27
2019-02-21T06:32:35.000Z,27
2019-02-21T06:34:35.000Z,27
2019-02-21T06:36:35.000Z,26.9
2019-02-21T06:38:35.000Z,27
2019-02-21T06:39:35.000Z,27
2019-02-21T06:40:35.000Z,27.1
2019-02-21T06:42:35.000Z,27.2
2019-02-21T06:44:35.000Z,27.3
2019-02-21T06:46:35.000Z,27.1
2019-02-21T06:47:35.000Z,27.1
2019-02-21T06:49:20.000Z,27.2
2019-02-21T06:50:26.000Z,27.1
2019-02-21T06:51:35.000Z,27.1
2019-02-21T06:53:35.000Z,27.1
2019-02-21T06:55:35.000Z,27
2019-02-21T06:56:35.000Z,27
2019-02-21T06:58:35.000Z,27.1
2019-02-21T07:00:35.000Z,27.1
2019-02-21T07:02:35.000Z,27.1
2019-02-21T07:03:35.000Z,27.1
2019-02-21T07:04:35.000Z,27.2
2019-02-21T07:06:20.000Z,27.3
2019-02-21T07:07:35.000Z,27.2
2019-02-21T07:08:35.000Z,27.2
2019-02-21T07:10:35.000Z,27.1
2019-02-21T07:11:35.000Z,27
2019-02-21T07:13:20.000Z,26.7
2019-02-21T07:14:35.000Z,26.3
2019-02-21T07:15:35.000Z,26.1
2019-02-21T07:16:35.000Z,26
2019-02-21T07:18:35.000Z,25.6
2019-02-21T07:20:35.000Z,25.3
2019-02-21T07:22:20.000Z,25.1
2019-02-21T07:23:35.000Z,25
2019-02-21T07:25:35.000Z,24.7
2019-02-21T07:26:35.000Z,24.8
2019-02-21T07:27:35.000Z,25
2019-02-21T07:29:35.000Z,25.4
2019-02-21T07:31:20.000Z,25.6
2019-02-21T07:32:35.000Z,25.7
2019-02-21T07:34:35.000Z,25.9
2019-02-21T07:35:35.000Z,26.1
2019-02-21T07:37:35.000Z,26.4
2019-02-21T07:39:35.000Z,26.7
2019-02-21T07:40:35.000Z,26.9
2019-02-21T07:42:20.000Z,27
2019-02-21T07:43:35.000Z,27.1
2019-02-21T07:45:35.000Z,27.2
2019-02-21T07:47:20.000Z,27.2
2019-02-21T07:48:35.000Z,27.2
2019-02-21T07:50:20.000Z,27.3
2019-02-21T07:51:35.000Z,27.3
2019-02-21T07:52:35.000Z,27.3
2019-02-21T07:54:35.000Z,27.5
2019-02-21T07:56:35.000Z,27.6
2019-02-21T07:58:35.000Z,27.6
2019-02-21T07:59:35.000Z,27.7
2019-02-21T08:00:35.000Z,27.8
2019-02-21T08:02:35.000Z,28
2019-02-21T08:04:35.000Z,28.1
2019-02-21T08:06:35.000Z,28.1
2019-02-21T08:07:35.000Z,28.1
2019-02-21T08:09:35.000Z,28.3
2019-02-21T08:11:35.000Z,28.4
2019-02-21T08:13:35.000Z,28.5
2019-02-21T08:14:35.000Z,28.6
2019-02-21T08:15:35.000Z,28.7
2019-02-21T08:17:35.000Z,29
2019-02-21T08:18:35.000Z,29.2
2019-02-21T08:20:35.000Z,29.5
2019-02-21T08:22:35.000Z,29.5
2019-02-21T08:24:35.000Z,29.5
2019-02-21T08:26:35.000Z,29.6
2019-02-21T08:28:35.000Z,29.7
2019-02-21T08:29:35.000Z,29.7
2019-02-21T08:31:35.000Z,29.7
2019-02-21T08:33:35.000Z,29.6
2019-02-21T08:35:35.000Z,29.5
2019-02-21T08:37:35.000Z,29.4
2019-02-21T08:38:35.000Z,29.3
2019-02-21T08:40:35.000Z,29.3
2019-02-21T08:42:35.000Z,29.3
2019-02-21T08:44:35.000Z,29.3
2019-02-21T08:45:35.000Z,29.3
2019-02-21T08:46:35.000Z,29.3
2019-02-21T08:48:35.000Z,29.3
2019-02-21T08:49:35.000Z,29.3
2019-02-21T08:51:35.000Z,29.2
2019-02-21T08:52:35.000Z,29.2
2019-02-21T08:54:35.000Z,29.2
2019-02-21T08:56:35.000Z,29.2
2019-02-21T08:58:35.000Z,29.2
2019-02-21T09:00:35.000Z,29.1
2019-02-21T09:02:35.000Z,29.1
2019-02-21T09:04:20.000Z,29.1
2019-02-21T09:05:35.000Z,29
2019-02-21T09:06:35.000Z,29
2019-02-21T09:08:20.000Z,29.1
2019-02-21T09:10:35.000Z,28.9
2019-02-21T09:11:35.000Z,28.9
2019-02-21T09:13:20.000Z,29
2019-02-21T09:15:35.000Z,28.8
2019-02-21T09:16:35.000Z,28.8
2019-02-21T09:18:35.000Z,29
2019-02-21T09:19:35.000Z,29
2019-02-21T09:21:35.000Z,29
2019-02-21T09:23:35.000Z,29
2019-02-21T09:25:35.000Z,28.9
2019-02-21T09:27:35.000Z,28.9
2019-02-21T09:28:35.000Z,28.9
2019-02-21T09:30:35.000Z,29
2019-02-21T09:32:35.000Z,28.9
2019-02-21T09:34:20.000Z,28.8
2019-02-21T09:35:35.000Z,28.7
2019-02-21T09:36:35.000Z,28.8
2019-02-21T09:38:35.000Z,28.8
2019-02-21T09:39:35.000Z,28.8
2019-02-21T09:41:35.000Z,28.9
2019-02-21T09:42:35.000Z,28.9
2019-02-21T09:44:35.000Z,28.9
2019-02-21T09:45:35.000Z,28.9
2019-02-21T09:46:35.000Z,29
2019-02-21T09:48:35.000Z,29
2019-02-21T09:49:35.000Z,29.1
2019-02-21T09:51:35.000Z,29.2
2019-02-21T09:53:35.000Z,29.2
2019-02-21T09:54:35.000Z,29.2
2019-02-21T09:55:35.000Z,29.3
2019-02-21T09:57:35.000Z,29.3
2019-02-21T09:58:35.000Z,29.3
2019-02-21T09:59:35.000Z,29.4
2019-02-21T10:01:35.000Z,29.6
2019-02-21T10:03:35.000Z,29.6
2019-02-21T10:05:35.000Z,29.5
2019-02-21T10:06:35.000Z,29.4
2019-02-21T10:08:20.000Z,29.4
2019-02-21T10:09:35.000Z,29.3
2019-02-21T10:10:35.000Z,29.3
2019-02-21T10:12:35.000Z,29.1
2019-02-21T10:13:35.000Z,29.1
2019-02-21T10:15:20.000Z,29.2
2019-02-21T10:16:35.000Z,29.2
2019-02-21T10:18:35.000Z,29.3
2019-02-21T10:20:35.000Z,29.2
2019-02-21T10:21:35.000Z,29.2
2019-02-21T10:23:20.000Z,29.3
2019-02-21T10:24:35.000Z,29.2
2019-02-21T10:26:35.000Z,29.2
2019-02-21T10:27:35.000Z,29.1
2019-02-21T10:29:35.000Z,29.1
2019-02-21T10:30:35.000Z,29.1
2019-02-21T10:32:35.000Z,29.1
2019-02-21T10:33:35.000Z,29.1
2019-02-21T10:35:35.000Z,29
2019-02-21T10:37:35.000Z,29.1
2019-02-21T10:39:35.000Z,29.4
2019-02-21T10:41:35.000Z,29.6
2019-02-21T10:43:35.000Z,30
2019-02-21T10:45:35.000Z,30.3
2019-02-21T10:47:35.000Z,31
2019-02-21T10:49:35.000Z,32.2
2019-02-21T10:50:35.000Z,32.8
2019-02-21T10:52:35.000Z,34.2
2019-02-21T10:54:35.000Z,34.8
2019-02-21T10:56:20.000Z,34.6
2019-02-21T10:57:35.000Z,34.3
2019-02-21T10:59:35.000Z,33.8
2019-02-21T11:01:35.000Z,33.7
2019-02-21T11:02:35.000Z,33.7
2019-02-21T11:04:35.000Z,34.6
2019-02-21T11:06:35.000Z,35.6
2019-02-21T11:08:35.000Z,35.6
2019-02-21T11:10:35.000Z,34.5
2019-02-21T11:12:35.000Z,33.5
2019-02-21T11:14:35.000Z,32.6
2019-02-21T11:16:35.000Z,31.9
2019-02-21T11:18:35.000Z,31.5
2019-02-21T11:19:35.000Z,31.3
2019-02-21T11:21:35.000Z,31.1
2019-02-21T11:23:35.000Z,30.9
2019-02-21T11:25:35.000Z,30.7
2019-02-21T11:27:35.000Z,30.6
2019-02-21T11:29:35.000Z,30.4
2019-02-21T11:30:35.000Z,30.3
2019-02-21T11:31:35.000Z,30.3
2019-02-21T11:32:35.000Z,30.3
2019-02-21T11:34:20.000Z,30.3
2019-02-21T11:35:35.000Z,30.1
2019-02-21T11:36:35.000Z,30.1
2019-02-21T11:37:35.000Z,30.1
2019-02-21T11:39:35.000Z,30
2019-02-21T11:40:35.000Z,30
2019-02-21T11:42:35.000Z,30
2019-02-21T11:44:35.000Z,30
2019-02-21T11:46:35.000Z,30.6
2019-02-21T11:48:35.000Z,31.9
2019-02-21T11:50:35.000Z,32.5
2019-02-21T11:52:35.000Z,32.4
2019-02-21T11:54:20.000Z,32.3
2019-02-21T11:55:35.000Z,32.1
2019-02-21T11:57:35.000Z,31.8
2019-02-21T11:58:35.000Z,31.7
2019-02-21T11:59:35.000Z,31.7
2019-02-21T12:00:35.000Z,31.6
2019-02-21T12:02:35.000Z,31.5
2019-02-21T12:04:35.000Z,31.3
2019-02-21T12:06:35.000Z,31
2019-02-21T12:07:35.000Z,31
2019-02-21T12:08:35.000Z,31
2019-02-21T12:10:35.000Z,31.1
2019-02-21T12:11:35.000Z,31.1
2019-02-21T12:13:35.000Z,31.2
2019-02-21T12:15:35.000Z,31.4
2019-02-21T12:17:35.000Z,32
2019-02-21T12:18:35.000Z,32.3
2019-02-21T12:20:35.000Z,32.6
2019-02-21T12:21:35.000Z,32.8
2019-02-21T12:23:20.000Z,33.7
2019-02-21T12:24:35.000Z,34.5
2019-02-21T12:25:35.000Z,35.3
2019-02-21T12:27:20.000Z,36.7
2019-02-21T12:28:35.000Z,37
2019-02-21T12:30:35.000Z,37.3
2019-02-21T12:31:35.000Z,37
2019-02-21T12:32:35.000Z,36.8
2019-02-21T12:33:35.000Z,36.7
2019-02-21T12:35:20.000Z,36.3
2019-02-21T12:36:35.000Z,35.6
2019-02-21T12:37:35.000Z,35.2
2019-02-21T12:38:35.000Z,34.8
2019-02-21T12:40:35.000Z,34.2
2019-02-21T12:41:35.000Z,34
2019-02-21T12:42:35.000Z,33.8
2019-02-21T12:44:35.000Z,33.4
2019-02-21T12:46:35.000Z,33.1
2019-02-21T12:47:35.000Z,33
2019-02-21T12:49:35.000Z,32.8
2019-02-21T12:50:35.000Z,32.7
2019-02-21T12:52:35.000Z,32.3
2019-02-21T12:53:35.000Z,32.2
2019-02-21T12:55:20.000Z,32.1
2019-02-21T12:56:35.000Z,31.9
2019-02-21T12:57:35.000Z,31.8
2019-02-21T12:59:35.000Z,31.7
2019-02-21T13:01:35.000Z,31.6
2019-02-21T13:03:35.000Z,31.7
2019-02-21T13:05:35.000Z,31.7
2019-02-21T13:07:35.000Z,31.5
2019-02-21T13:08:35.000Z,31.5
2019-02-21T13:10:35.000Z,31.4
2019-02-21T13:12:35.000Z,31.3
2019-02-21T13:14:35.000Z,31.2
2019-02-21T13:15:35.000Z,31.2
2019-02-21T13:17:35.000Z,31.1
2019-02-21T13:18:35.000Z,31.1
2019-02-21T13:20:20.000Z,31.1
2019-02-21T13:21:35.000Z,31
2019-02-21T13:23:20.000Z,31
2019-02-21T13:24:35.000Z,30.9
2019-02-21T13:25:35.000Z,30.9
2019-02-21T13:27:35.000Z,31
2019-02-21T13:28:35.000Z,31
2019-02-21T13:30:35.000Z,31
2019-02-21T13:31:35.000Z,31
2019-02-21T13:33:35.000Z,31
2019-02-21T13:35:35.000Z,31
2019-02-21T13:37:28.000Z,30.9
2019-02-21T13:38:35.000Z,30.8
2019-02-21T13:40:20.000Z,30.7
2019-02-21T13:41:35.000Z,30.7
2019-02-21T13:42:35.000Z,30.7
2019-02-21T13:43:35.000Z,30.8
2019-02-21T13:45:35.000Z,30.9
2019-02-21T13:47:35.000Z,31
2019-02-21T13:49:20.000Z,30.9
2019-02-21T13:50:20.000Z,30.8
2019-02-21T13:51:35.000Z,30.8
2019-02-21T13:52:35.000Z,30.8
2019-02-21T13:53:35.000Z,30.9
2019-02-21T13:55:35.000Z,31
2019-02-21T13:57:35.000Z,31.1
2019-02-21T13:58:35.000Z,31.2
2019-02-21T14:00:35.000Z,31.5
2019-02-21T14:01:35.000Z,31.6
2019-02-21T14:03:35.000Z,31.8
2019-02-21T14:05:35.000Z,31.9
2019-02-21T14:07:35.000Z,32
2019-02-21T14:09:20.000Z,31.8
2019-02-21T14:10:35.000Z,31.6
2019-02-21T14:11:35.000Z,31.5
2019-02-21T14:13:35.000Z,31.4
2019-02-21T14:14:35.000Z,31.4
2019-02-21T14:16:35.000Z,31.2
2019-02-21T14:18:35.000Z,31
2019-02-21T14:20:35.000Z,31
2019-02-21T14:22:35.000Z,30.9
2019-02-21T14:24:35.000Z,31.1
2019-02-21T14:26:35.000Z,31.1
2019-02-21T14:28:35.000Z,31.2
2019-02-21T14:30:35.000Z,31.2
2019-02-21T14:32:35.000Z,31.1
2019-02-21T14:33:35.000Z,31.2
2019-02-21T14:35:35.000Z,31.1
2019-02-21T14:36:35.000Z,31
2019-02-21T14:38:20.000Z,30.6
2019-02-21T14:39:35.000Z,30.2
2019-02-21T14:40:35.000Z,30
2019-02-21T14:42:35.000Z,29.7
2019-02-21T14:44:35.000Z,29.3
2019-02-21T14:46:35.000Z,29.1
2019-02-21T14:48:35.000Z,28.8
2019-02-21T14:50:35.000Z,28.5
2019-02-21T14:52:35.000Z,28.4
2019-02-21T14:54:35.000Z,28.2
2019-02-21T14:56:35.000Z,27.9
2019-02-21T14:58:35.000Z,27.9
2019-02-21T14:59:35.000Z,27.8
2019-02-21T15:01:35.000Z,27.8
2019-02-21T15:03:20.000Z,27.8
2019-02-21T15:04:35.000Z,27.6
2019-02-21T15:05:35.000Z,27.4
2019-02-21T15:07:35.000Z,27.2
2019-02-21T15:09:35.000Z,27
2019-02-21T15:11:35.000Z,26.8
2019-02-21T15:13:35.000Z,26.8
2019-02-21T15:14:35.000Z,26.8
2019-02-21T15:16:35.000Z,26.9
2019-02-21T15:17:35.000Z,26.9
2019-02-21T15:19:35.000Z,26.9
2019-02-21T15:20:35.000Z,26.9
2019-02-21T15:22:35.000Z,26.9
2019-02-21T15:24:35.000Z,26.8
2019-02-21T15:26:35.000Z,26.7
2019-02-21T15:28:35.000Z,26.6
2019-02-21T15:29:35.000Z,26.6
2019-02-21T15:31:35.000Z,26.6
2019-02-21T15:33:35.000Z,26.5
2019-02-21T15:35:20.000Z,26.4
2019-02-21T15:37:35.000Z,26.1
2019-02-21T15:38:35.000Z,26.1
2019-02-21T15:40:35.000Z,26.2
2019-02-21T15:42:35.000Z,26.2
2019-02-21T15:44:35.000Z,26.1
2019-02-21T15:46:35.000Z,26.1
2019-02-21T15:47:35.000Z,26.1
2019-02-21T15:49:20.000Z,26.3
2019-02-21T15:50:35.000Z,26.3
2019-02-21T15:52:20.000Z,26.3
2019-02-21T15:53:35.000Z,26.2
2019-02-21T15:54:35.000Z,26.2
2019-02-21T15:55:35.000Z,26.2
2019-02-21T15:57:35.000Z,26.3
2019-02-21T15:59:35.000Z,26.2
2019-02-21T16:00:35.000Z,26.1
2019-02-21T16:01:35.000Z,26.2
2019-02-21T16:03:35.000Z,26.1
2019-02-21T16:04:35.000Z,26.1
2019-02-21T16:06:35.000Z,26.1
2019-02-21T16:08:35.000Z,25.9
2019-02-21T16:09:35.000Z,25.8
2019-02-21T16:10:35.000Z,25.9
2019-02-21T16:12:20.000Z,25.8
2019-02-21T16:14:35.000Z,25.5
2019-02-21T16:16:35.000Z,25.2
2019-02-21T16:17:35.000Z,25.2
2019-02-21T16:19:35.000Z,25.3
2019-02-21T16:20:35.000Z,25.4
2019-02-21T16:22:35.000Z,25.5
2019-02-21T16:24:20.000Z,25.5
2019-02-21T16:25:35.000Z,25.4
2019-02-21T16:26:35.000Z,25.4
2019-02-21T16:27:35.000Z,25.4
2019-02-21T16:29:35.000Z,25.5
2019-02-21T16:31:35.000Z,25.4
2019-02-21T16:32:35.000Z,25.3
2019-02-21T16:33:35.000Z,25.4
2019-02-21T16:35:35.000Z,25.4
2019-02-21T16:37:35.000Z,25.3
2019-02-21T16:39:20.000Z,25.3
2019-02-21T16:40:35.000Z,25.1
2019-02-21T16:41:35.000Z,25
2019-02-21T16:43:35.000Z,24.8
2019-02-21T16:45:35.000Z,24.8
2019-02-21T16:47:20.000Z,24.7
2019-02-21T16:48:35.000Z,24.6
2019-02-21T16:49:35.000Z,24.6
2019-02-21T16:51:21.000Z,24.6
2019-02-21T16:53:35.000Z,24.4
2019-02-21T16:55:36.000Z,24.4
2019-02-21T16:57:36.000Z,24.4
2019-02-21T16:59:36.000Z,24.4
2019-02-21T17:01:36.000Z,24.3
2019-02-21T17:03:36.000Z,24.4
2019-02-21T17:04:36.000Z,24.4
2019-02-21T17:05:36.000Z,24.4
2019-02-21T17:06:36.000Z,24.5
2019-02-21T17:08:36.000Z,24.4
2019-02-21T17:10:36.000Z,24.3
2019-02-21T17:11:36.000Z,24.2
2019-02-21T17:13:36.000Z,24.2
2019-02-21T17:15:36.000Z,24.1
2019-02-21T17:17:36.000Z,24
2019-02-21T17:19:36.000Z,24
2019-02-21T17:21:36.000Z,23.9
2019-02-21T17:23:21.000Z,23.9
2019-02-21T17:24:36.000Z,23.8
2019-02-21T17:26:36.000Z,23.6
2019-02-21T17:28:36.000Z,23.7
2019-02-21T17:30:36.000Z,23.7
2019-02-21T17:32:36.000Z,23.8
2019-02-21T17:33:36.000Z,23.9
2019-02-21T17:35:36.000Z,24
2019-02-21T17:37:21.000Z,24.1
2019-02-21T17:38:36.000Z,24
2019-02-21T17:39:36.000Z,24
2019-02-21T17:41:36.000Z,24.1
2019-02-21T17:42:36.000Z,24.2
2019-02-21T17:44:36.000Z,24.3
2019-02-21T17:45:36.000Z,24.4
2019-02-21T17:47:36.000Z,24.5
2019-02-21T17:49:36.000Z,24.5
2019-02-21T17:51:36.000Z,24.5
2019-02-21T17:53:36.000Z,24.4
2019-02-21T17:54:36.000Z,24.3
2019-02-21T17:55:36.000Z,24.2
2019-02-21T17:57:36.000Z,24.3
2019-02-21T17:59:36.000Z,24.2
2019-02-21T18:00:36.000Z,24.2
2019-02-21T18:02:36.000Z,24.3
2019-02-21T18:04:36.000Z,24.2
2019-02-21T18:06:36.000Z,24.1
2019-02-21T18:07:36.000Z,24.1
2019-02-21T18:09:36.000Z,24.1
2019-02-21T18:11:36.000Z,24
2019-02-21T18:12:36.000Z,24
2019-02-21T18:14:36.000Z,24
2019-02-21T18:15:36.000Z,24
2019-02-21T18:17:20.000Z,24
2019-02-21T18:18:36.000Z,24
2019-02-21T18:20:36.000Z,24.1
2019-02-21T18:21:36.000Z,24.1
2019-02-21T18:22:36.000Z,24.2
2019-02-21T18:24:36.000Z,24.3
2019-02-21T18:26:36.000Z,24.3
2019-02-21T18:28:36.000Z,24.3
2019-02-21T18:30:36.000Z,24.1
2019-02-21T18:31:36.000Z,24.1
2019-02-21T18:32:36.000Z,24.1
2019-02-21T18:34:36.000Z,24.1
2019-02-21T18:36:36.000Z,24.1
2019-02-21T18:38:36.000Z,24
2019-02-21T18:40:36.000Z,23.9
2019-02-21T18:42:36.000Z,23.8
2019-02-21T18:44:36.000Z,23.9
2019-02-21T18:45:36.000Z,23.9
2019-02-21T18:47:36.000Z,23.9
2019-02-21T18:49:36.000Z,23.9
2019-02-21T18:51:36.000Z,24
2019-02-21T18:52:36.000Z,24
2019-02-21T18:53:36.000Z,24.1
2019-02-21T18:55:36.000Z,24.2
2019-02-21T18:57:36.000Z,24.1
2019-02-21T18:58:36.000Z,24.1
2019-02-21T19:00:36.000Z,23.9
2019-02-21T19:01:36.000Z,23.9
2019-02-21T19:02:35.000Z,24
2019-02-21T19:04:35.000Z,24
2019-02-21T19:06:35.000Z,24.1
2019-02-21T19:08:35.000Z,24
2019-02-21T19:10:35.000Z,24
2019-02-21T19:12:20.000Z,24
2019-02-21T19:13:35.000Z,23.9
2019-02-21T19:15:35.000Z,23.9
2019-02-21T19:17:35.000Z,23.9
2019-02-21T19:19:35.000Z,23.9
2019-02-21T19:21:35.000Z,23.9
2019-02-21T19:22:35.000Z,23.9
2019-02-21T19:24:35.000Z,23.9
2019-02-21T19:26:35.000Z,23.7
2019-02-21T19:27:35.000Z,23.7
2019-02-21T19:29:35.000Z,23.7
2019-02-21T19:31:35.000Z,23.7
2019-02-21T19:33:35.000Z,23.7
2019-02-21T19:35:35.000Z,23.7
2019-02-21T19:36:35.000Z,23.7
2019-02-21T19:38:35.000Z,23.7
2019-02-21T19:39:35.000Z,23.7
2019-02-21T19:41:35.000Z,23.7
2019-02-21T19:42:35.000Z,23.8
2019-02-21T19:44:35.000Z,23.7
2019-02-21T19:45:35.000Z,23.7
2019-02-21T19:46:35.000Z,23.8
2019-02-21T19:47:35.000Z,23.8
2019-02-21T19:49:35.000Z,23.8
2019-02-21T19:51:35.000Z,23.7
2019-02-21T19:52:35.000Z,23.7
2019-02-21T19:54:35.000Z,23.7
2019-02-21T19:55:35.000Z,23.7
2019-02-21T19:57:35.000Z,23.7
2019-02-21T19:58:35.000Z,23.7
2019-02-21T20:00:35.000Z,23.6
2019-02-21T20:02:35.000Z,23.6
2019-02-21T20:03:35.000Z,23.5
2019-02-21T20:05:35.000Z,23.6
2019-02-21T20:06:36.000Z,23.6
2019-02-21T20:07:36.000Z,23.6
2019-02-21T20:09:21.000Z,23.6
2019-02-21T20:10:36.000Z,23.5
2019-02-21T20:12:36.000Z,23.5
2019-02-21T20:14:36.000Z,23.5
2019-02-21T20:16:36.000Z,23.5
2019-02-21T20:17:36.000Z,23.5
2019-02-21T20:18:36.000Z,23.6
2019-02-21T20:19:36.000Z,23.6
2019-02-21T20:21:36.000Z,23.6
2019-02-21T20:23:36.000Z,23.5
2019-02-21T20:25:36.000Z,23.4
2019-02-21T20:27:36.000Z,23.4
2019-02-21T20:29:36.000Z,23.4
2019-02-21T20:30:36.000Z,23.4
2019-02-21T20:31:36.000Z,23.4
2019-02-21T20:33:36.000Z,23.5
2019-02-21T20:34:36.000Z,23.6
2019-02-21T20:35:36.000Z,23.6
2019-02-21T20:37:21.000Z,23.6
2019-02-21T20:38:21.000Z,23.5
2019-02-21T20:39:36.000Z,23.4
2019-02-21T20:41:36.000Z,23.2
2019-02-21T20:42:36.000Z,23.1
2019-02-21T20:44:36.000Z,23.2
2019-02-21T20:46:36.000Z,23.2
2019-02-21T20:48:36.000Z,23.2
2019-02-21T20:49:36.000Z,23.2
2019-02-21T20:51:36.000Z,23.3
2019-02-21T20:53:36.000Z,23.2
2019-02-21T20:54:36.000Z,23.2
2019-02-21T20:55:36.000Z,23.3
2019-02-21T20:57:36.000Z,23.3
2019-02-21T20:59:36.000Z,23.2
2019-02-21T21:00:36.000Z,23.2
2019-02-21T21:01:36.000Z,23.3
2019-02-21T21:03:21.000Z,23.2
2019-02-21T21:04:36.000Z,23.1
2019-02-21T21:05:36.000Z,23
2019-02-21T21:06:36.000Z,23
2019-02-21T21:08:21.000Z,23.1
2019-02-21T21:09:36.000Z,23
2019-02-21T21:10:35.000Z,22.9
2019-02-21T21:12:35.000Z,23
2019-02-21T21:13:35.000Z,23
2019-02-21T21:14:35.000Z,23.1
2019-02-21T21:16:35.000Z,23.1
2019-02-21T21:17:35.000Z,23.1
2019-02-21T21:19:35.000Z,23.1
2019-02-21T21:20:35.000Z,23.1
2019-02-21T21:21:35.000Z,23.1
2019-02-21T21:23:35.000Z,23.1